createdAt,value
2023-09-25T00:00:36.604Z,5.30
2023-09-25T00:03:25.193Z,5.30
2023-09-25T00:05:53.635Z,5.50
2023-09-25T00:08:22.063Z,5.40
2023-09-25T00:10:50.410Z,5.50
2023-09-25T00:13:18.877Z,5.40
2023-09-25T00:15:48.207Z,5.00
2023-09-25T00:18:17.572Z,6.60
2023-09-25T00:20:46.007Z,5.30
2023-09-25T00:23:14.286Z,5.30
2023-09-25T00:25:42.746Z,6.00
2023-09-25T00:28:11.273Z,6.00
2023-09-25T00:30:40.800Z,5.90
2023-09-25T00:33:09.266Z,6.20
2023-09-25T00:35:37.709Z,4.80
2023-09-25T00:38:05.957Z,5.60
2023-09-25T00:40:35.286Z,5.60
2023-09-25T00:43:03.786Z,5.40
2023-09-25T00:45:32.427Z,5.50
2023-09-25T00:48:01.005Z,5.50
2023-09-25T00:50:31.557Z,5.60
2023-09-25T00:53:07.975Z,5.20
2023-09-25T00:55:36.784Z,5.50
2023-09-25T00:58:08.273Z,5.70
2023-09-25T01:00:37.203Z,5.30
2023-09-25T01:03:06.562Z,5.40
2023-09-25T01:05:37.771Z,5.70
2023-09-25T01:08:08.583Z,5.30
2023-09-25T01:10:38.480Z,5.20
2023-09-25T01:13:06.834Z,6.10
2023-09-25T01:15:35.473Z,5.50
2023-09-25T01:18:04.662Z,5.00
2023-09-25T01:20:33.077Z,5.20
2023-09-25T01:23:01.359Z,6.80
2023-09-25T01:25:29.610Z,6.00
2023-09-25T01:27:57.997Z,5.30
2023-09-25T01:30:30.302Z,5.40
2023-09-25T01:32:58.831Z,5.30
2023-09-25T01:35:30.162Z,5.90
2023-09-25T01:38:01.078Z,5.80
2023-09-25T01:40:29.574Z,5.80
2023-09-25T01:42:58.284Z,6.10
2023-09-25T01:45:26.973Z,5.00
2023-09-25T01:47:57.193Z,5.00
2023-09-25T01:50:26.982Z,5.60
2023-09-25T01:53:01.029Z,5.60
2023-09-25T01:55:37.390Z,6.60
2023-09-25T01:58:08.200Z,5.90
2023-09-25T02:00:36.882Z,5.20
2023-09-25T02:03:06.700Z,5.90
2023-09-25T02:05:36.616Z,4.90
2023-09-25T02:08:05.323Z,5.40
2023-09-25T02:10:35.552Z,6.30
2023-09-25T02:13:04.300Z,5.90
2023-09-25T02:15:32.681Z,6.10
2023-09-25T02:18:01.124Z,6.00
2023-09-25T02:20:29.473Z,5.60
2023-09-25T02:22:58.058Z,5.80
2023-09-25T02:25:26.500Z,6.10
2023-09-25T02:27:55.635Z,5.50
2023-09-25T02:30:24.152Z,5.60
2023-09-25T02:32:52.522Z,7.00
2023-09-25T02:35:20.977Z,6.50
2023-09-25T02:37:49.317Z,5.40
2023-09-25T02:40:17.985Z,5.30
2023-09-25T02:42:47.046Z,5.60
2023-09-25T02:45:16.897Z,5.80
2023-09-25T02:47:46.239Z,5.00
2023-09-25T02:50:15.274Z,5.80
2023-09-25T02:52:45.210Z,5.90
2023-09-25T02:55:14.837Z,5.40
2023-09-25T02:57:44.243Z,5.40
2023-09-25T03:00:14.459Z,5.00
2023-09-25T03:02:44.442Z,6.00
2023-09-25T03:05:13.470Z,5.80
2023-09-25T03:07:42.310Z,5.30
2023-09-25T03:10:10.695Z,5.80
2023-09-25T03:12:39.492Z,6.20
2023-09-25T03:15:08.777Z,4.90
2023-09-25T03:17:37.317Z,6.00
2023-09-25T03:20:10.026Z,4.60
2023-09-25T03:22:38.305Z,5.30
2023-09-25T03:25:06.983Z,4.90
2023-09-25T03:27:35.421Z,5.00
2023-09-25T03:30:04.332Z,5.60
2023-09-25T03:32:34.000Z,5.30
2023-09-25T03:35:05.353Z,5.60
2023-09-25T03:37:33.817Z,5.10
2023-09-25T03:40:04.104Z,5.20
2023-09-25T03:42:34.745Z,5.40
2023-09-25T03:45:04.402Z,6.30
2023-09-25T03:47:32.944Z,6.40
2023-09-25T03:50:01.291Z,5.80
2023-09-25T03:52:30.215Z,5.40
2023-09-25T03:54:58.483Z,4.90
2023-09-25T03:57:26.854Z,4.80
2023-09-25T03:59:55.483Z,6.00
2023-09-25T04:02:23.858Z,4.70
2023-09-25T04:04:52.828Z,6.00
2023-09-25T04:07:21.168Z,5.30
2023-09-25T04:09:49.568Z,5.80
2023-09-25T04:12:17.941Z,5.50
2023-09-25T04:14:46.360Z,5.90
2023-09-25T04:17:17.088Z,5.20
2023-09-25T04:19:46.094Z,5.10
2023-09-25T04:22:14.687Z,5.40
2023-09-25T04:24:42.961Z,5.40
2023-09-25T04:27:11.361Z,4.70
2023-09-25T04:29:40.488Z,5.10
2023-09-25T04:32:08.754Z,5.20
2023-09-25T04:34:38.057Z,5.20
2023-09-25T04:37:09.297Z,5.80
2023-09-25T04:39:37.869Z,5.70
2023-09-25T04:42:06.755Z,5.30
2023-09-25T04:44:35.047Z,5.40
2023-09-25T04:47:03.353Z,5.80
2023-09-25T04:49:32.370Z,4.90
2023-09-25T04:52:00.694Z,5.80
2023-09-25T04:54:29.965Z,5.00
2023-09-25T04:56:58.348Z,5.90
2023-09-25T04:59:26.624Z,5.40
2023-09-25T05:01:54.916Z,5.20
2023-09-25T05:04:23.237Z,5.10
2023-09-25T05:06:51.656Z,5.20
2023-09-25T05:09:20.070Z,5.10
2023-09-25T05:11:48.815Z,6.00
2023-09-25T05:14:17.114Z,5.80
2023-09-25T05:16:45.455Z,5.40
2023-09-25T05:19:14.468Z,5.50
2023-09-25T05:21:42.759Z,6.00
2023-09-25T05:24:11.359Z,5.30
2023-09-25T05:26:39.688Z,6.50
2023-09-25T05:29:07.925Z,5.80
2023-09-25T05:31:36.207Z,5.60
2023-09-25T05:34:05.180Z,6.40
2023-09-25T05:36:34.076Z,6.40
2023-09-25T05:39:03.869Z,7.40
2023-09-25T05:41:32.148Z,7.00
2023-09-25T05:44:00.719Z,7.40
2023-09-25T05:46:29.120Z,6.80
2023-09-25T05:48:59.258Z,6.50
2023-09-25T05:51:28.115Z,6.50
2023-09-25T05:53:56.451Z,6.30
2023-09-25T05:56:24.943Z,7.30
2023-09-25T05:58:54.314Z,6.70
2023-09-25T06:01:23.316Z,6.80
2023-09-25T06:03:51.935Z,6.50
2023-09-25T06:06:21.447Z,6.10
2023-09-25T06:08:50.034Z,7.80
2023-09-25T06:11:18.545Z,7.00
2023-09-25T06:13:46.953Z,8.20
2023-09-25T06:16:15.462Z,7.50
2023-09-25T06:18:44.575Z,7.00
2023-09-25T06:21:14.718Z,6.80
2023-09-25T06:23:44.460Z,6.70
2023-09-25T06:26:12.777Z,6.90
2023-09-25T06:28:43.375Z,7.70
2023-09-25T06:31:12.036Z,5.90
2023-09-25T06:33:40.860Z,6.80
2023-09-25T06:36:09.312Z,6.60
2023-09-25T06:38:37.709Z,6.50
2023-09-25T06:41:06.038Z,7.30
2023-09-25T06:43:34.252Z,7.40
2023-09-25T06:46:03.112Z,6.90
2023-09-25T06:48:33.587Z,6.30
2023-09-25T06:51:02.599Z,6.60
2023-09-25T06:53:30.979Z,6.40
2023-09-25T06:55:59.456Z,7.20
2023-09-25T06:58:27.999Z,7.10
2023-09-25T07:00:57.946Z,8.80
2023-09-25T07:03:27.936Z,8.50
2023-09-25T07:05:57.771Z,6.00
2023-09-25T07:08:27.450Z,6.50
2023-09-25T07:10:56.236Z,6.80
2023-09-25T07:13:25.483Z,8.50
2023-09-25T07:16:03.846Z,7.30
2023-09-25T07:18:32.850Z,9.70
2023-09-25T07:21:01.498Z,7.00
2023-09-25T07:23:30.613Z,6.50
2023-09-25T07:26:04.107Z,6.00
2023-09-25T07:28:33.195Z,6.20
2023-09-25T07:31:02.522Z,5.80
2023-09-25T07:33:33.186Z,6.00
2023-09-25T07:36:03.721Z,6.00
2023-09-25T07:38:34.424Z,5.60
2023-09-25T07:41:03.354Z,6.60
2023-09-25T07:43:46.258Z,5.40
2023-09-25T07:46:19.900Z,5.90
2023-09-25T07:48:50.125Z,6.20
2023-09-25T07:51:18.705Z,6.30
2023-09-25T07:53:47.191Z,5.10
2023-09-25T07:56:15.576Z,5.20
2023-09-25T07:58:52.875Z,6.00
2023-09-25T08:01:21.515Z,6.10
2023-09-25T08:03:53.454Z,5.20
2023-09-25T08:06:25.763Z,5.40
2023-09-25T08:08:59.133Z,4.50
2023-09-25T08:11:27.973Z,5.80
2023-09-25T08:13:56.306Z,5.90
2023-09-25T08:16:25.162Z,5.30
2023-09-25T08:18:53.858Z,5.50
2023-09-25T08:21:22.204Z,5.30
2023-09-25T08:23:50.523Z,4.80
2023-09-25T08:26:18.800Z,5.40
2023-09-25T08:28:47.060Z,5.00
2023-09-25T08:31:15.471Z,4.70
2023-09-25T08:33:43.973Z,5.10
2023-09-25T08:36:12.606Z,5.20
2023-09-25T08:38:41.142Z,4.70
2023-09-25T08:41:10.313Z,4.90
2023-09-25T08:43:42.462Z,4.90
2023-09-25T08:46:11.881Z,4.20
2023-09-25T08:48:40.777Z,4.80
2023-09-25T08:51:10.193Z,4.90
2023-09-25T08:53:39.489Z,4.60
2023-09-25T08:56:14.147Z,4.40
2023-09-25T08:58:47.348Z,4.90
2023-09-25T09:01:16.575Z,4.70
2023-09-25T09:03:45.023Z,4.50
2023-09-25T09:06:14.213Z,5.10
2023-09-25T09:08:47.720Z,5.00
2023-09-25T09:11:16.598Z,4.20
2023-09-25T09:13:48.643Z,3.90
2023-09-25T09:16:19.406Z,4.30
2023-09-25T09:18:49.188Z,4.00
2023-09-25T09:21:26.747Z,5.40
2023-09-25T09:23:57.937Z,4.60
2023-09-25T09:26:26.923Z,3.70
2023-09-25T09:28:55.840Z,4.20
2023-09-25T09:31:24.381Z,4.00
2023-09-25T09:33:56.893Z,4.60
2023-09-25T09:36:25.812Z,3.60
2023-09-25T09:38:54.999Z,3.60
2023-09-25T09:41:24.032Z,4.10
2023-09-25T09:43:53.735Z,4.00
2023-09-25T09:46:28.690Z,3.70
2023-09-25T09:48:58.996Z,4.20
2023-09-25T09:51:28.932Z,3.90
2023-09-25T09:54:01.052Z,3.60
2023-09-25T09:56:29.469Z,4.10
2023-09-25T09:58:57.776Z,3.90
2023-09-25T10:01:26.855Z,3.90
2023-09-25T10:03:56.950Z,3.70
2023-09-25T10:06:29.165Z,3.60
2023-09-25T10:09:10.239Z,3.70
2023-09-25T10:11:38.861Z,4.00
2023-09-25T10:14:09.675Z,4.10
2023-09-25T10:16:57.341Z,4.00
2023-09-25T10:19:39.343Z,3.30
2023-09-25T10:22:14.446Z,3.60
2023-09-25T10:24:44.482Z,3.90
2023-09-25T10:27:13.023Z,4.00
2023-09-25T10:30:01.338Z,4.20
2023-09-25T10:32:33.155Z,3.50
2023-09-25T10:35:38.182Z,3.40
2023-09-25T10:40:53.184Z,2.80
2023-09-25T10:43:23.736Z,3.60
2023-09-25T10:45:55.694Z,3.50
2023-09-25T10:48:26.319Z,3.10
2023-09-25T10:50:55.588Z,2.90
2023-09-25T10:53:24.322Z,3.40
2023-09-25T10:55:52.644Z,3.30
2023-09-25T10:58:22.605Z,3.30
2023-09-25T11:00:51.816Z,3.50
2023-09-25T11:03:21.909Z,2.50
2023-09-25T11:05:51.065Z,2.70
2023-09-25T11:08:19.924Z,2.40
2023-09-25T11:10:49.139Z,3.10
2023-09-25T11:13:17.672Z,3.00
2023-09-25T11:15:47.326Z,2.90
2023-09-25T11:18:21.050Z,2.60
2023-09-25T11:20:52.801Z,2.80
2023-09-25T11:23:22.734Z,2.50
2023-09-25T11:25:53.190Z,3.20
2023-09-25T11:28:23.293Z,2.20
2023-09-25T11:30:53.552Z,2.60
2023-09-25T11:33:24.891Z,3.00
2023-09-25T11:35:56.446Z,2.60
2023-09-25T11:38:29.803Z,2.40
2023-09-25T11:41:02.505Z,2.50
2023-09-25T11:43:31.028Z,4.30
2023-09-25T11:45:59.837Z,2.80
2023-09-25T11:48:28.429Z,3.10
2023-09-25T11:50:57.901Z,2.80
2023-09-25T11:53:26.292Z,2.40
2023-09-25T11:55:55.301Z,3.60
2023-09-25T11:58:24.398Z,3.00
2023-09-25T12:00:52.722Z,2.50
2023-09-25T12:03:21.243Z,2.70
2023-09-25T12:05:50.495Z,2.60
2023-09-25T12:08:19.424Z,2.50
2023-09-25T12:10:47.807Z,3.50
2023-09-25T12:13:17.157Z,3.30
2023-09-25T12:15:46.437Z,2.80
2023-09-25T12:18:15.754Z,2.90
2023-09-25T12:20:44.746Z,2.90
2023-09-25T12:23:13.785Z,2.80
2023-09-25T12:25:42.204Z,3.10
2023-09-25T12:28:10.823Z,2.80
2023-09-25T12:30:39.187Z,2.90
2023-09-25T12:33:09.278Z,2.80
2023-09-25T12:35:42.494Z,3.50
2023-09-25T12:38:11.156Z,2.90
2023-09-25T12:40:39.537Z,2.80
2023-09-25T12:43:07.907Z,2.70
2023-09-25T12:45:36.457Z,2.80
2023-09-25T12:48:05.671Z,3.60
2023-09-25T12:50:34.763Z,3.20
2023-09-25T12:53:03.454Z,2.80
2023-09-25T12:55:34.825Z,3.40
2023-09-25T12:58:05.931Z,3.60
2023-09-25T13:00:34.617Z,2.90
2023-09-25T13:03:04.331Z,3.00
2023-09-25T13:05:34.895Z,3.10
2023-09-25T13:08:03.586Z,2.90
2023-09-25T13:10:32.368Z,3.20
2023-09-25T13:13:00.759Z,3.00
2023-09-25T13:15:30.490Z,2.70
2023-09-25T13:17:58.895Z,2.60
2023-09-25T13:20:27.557Z,3.10
2023-09-25T13:22:55.831Z,2.80
2023-09-25T13:25:25.779Z,2.90
2023-09-25T13:27:54.110Z,2.30
2023-09-25T13:30:23.199Z,2.30
2023-09-25T13:32:51.532Z,2.50
2023-09-25T13:35:20.887Z,2.40
2023-09-25T13:37:49.191Z,2.40
2023-09-25T13:40:22.475Z,2.30
2023-09-25T13:42:51.152Z,2.40
2023-09-25T13:45:19.565Z,2.30
2023-09-25T13:47:48.079Z,2.60
2023-09-25T13:50:16.427Z,2.40
2023-09-25T13:52:44.851Z,2.10
2023-09-25T13:55:16.757Z,1.80
2023-09-25T13:57:45.500Z,2.30
2023-09-25T14:00:14.280Z,2.10
2023-09-25T14:02:43.193Z,2.10
2023-09-25T14:05:14.562Z,1.90
2023-09-25T14:07:43.139Z,2.50
2023-09-25T14:10:15.003Z,2.10
2023-09-25T14:12:46.606Z,1.90
2023-09-25T14:15:15.668Z,1.80
2023-09-25T14:17:45.617Z,2.00
2023-09-25T14:20:14.772Z,1.80
2023-09-25T14:22:43.393Z,2.10
2023-09-25T14:25:12.149Z,2.30
2023-09-25T14:27:41.045Z,2.00
2023-09-25T14:30:11.538Z,2.00
2023-09-25T14:32:40.778Z,2.60
2023-09-25T14:35:10.120Z,2.30
2023-09-25T14:37:40.670Z,2.20
2023-09-25T14:40:09.943Z,2.00
2023-09-25T14:42:38.470Z,2.30
2023-09-25T14:45:07.517Z,2.00
2023-09-25T14:47:35.899Z,1.90
2023-09-25T14:50:04.344Z,3.10
2023-09-25T14:52:32.684Z,2.60
2023-09-25T14:55:01.101Z,3.20
2023-09-25T14:57:30.286Z,2.60
2023-09-25T14:59:58.800Z,2.10
2023-09-25T15:02:28.200Z,2.10
2023-09-25T15:04:56.804Z,2.00
2023-09-25T15:07:25.298Z,2.70
2023-09-25T15:09:53.836Z,2.20
2023-09-25T15:12:26.253Z,2.20
2023-09-25T15:14:56.807Z,2.00
2023-09-25T15:17:26.717Z,3.50
2023-09-25T15:19:59.895Z,2.50
2023-09-25T15:22:29.553Z,2.90
2023-09-25T15:24:58.279Z,3.00
2023-09-25T15:27:28.069Z,3.30
2023-09-25T15:30:01.235Z,3.50
2023-09-25T15:34:58.255Z,2.50
2023-09-25T15:37:28.961Z,2.40
2023-09-25T15:39:57.455Z,2.50
2023-09-25T15:42:25.769Z,2.10
2023-09-25T15:44:54.316Z,2.20
2023-09-25T15:47:22.947Z,2.60
2023-09-25T15:49:52.269Z,3.40
2023-09-25T15:52:20.822Z,3.10
2023-09-25T15:54:49.213Z,3.30
2023-09-25T15:57:17.562Z,3.00
2023-09-25T15:59:45.843Z,3.90
2023-09-25T16:02:14.089Z,5.00
2023-09-25T16:04:42.531Z,8.10
2023-09-25T16:07:11.180Z,8.30
2023-09-25T16:09:39.607Z,9.60
2023-09-25T16:12:07.991Z,9.10
2023-09-25T16:14:36.266Z,7.30
2023-09-25T16:17:04.864Z,4.30
2023-09-25T16:19:33.147Z,3.20
2023-09-25T16:22:04.399Z,2.50
2023-09-25T16:24:33.371Z,3.40
2023-09-25T16:27:01.696Z,2.20
2023-09-25T16:29:29.987Z,3.00
2023-09-25T16:31:58.401Z,2.60
2023-09-25T16:34:27.209Z,2.20
2023-09-25T16:36:55.684Z,2.10
2023-09-25T16:39:26.269Z,2.30
2023-09-25T16:41:57.372Z,2.70
2023-09-25T16:44:26.483Z,2.50
2023-09-25T16:46:55.039Z,2.90
2023-09-25T16:49:24.295Z,2.60
2023-09-25T16:51:53.005Z,2.80
2023-09-25T16:54:21.428Z,3.40
2023-09-25T16:56:49.708Z,4.70
2023-09-25T16:59:18.166Z,4.80
2023-09-25T17:01:47.180Z,5.00
2023-09-25T17:04:18.375Z,5.30
2023-09-25T17:06:46.858Z,5.70
2023-09-25T17:09:15.405Z,4.80
2023-09-25T17:11:44.351Z,4.50
2023-09-25T17:14:12.922Z,4.60
2023-09-25T17:16:41.545Z,5.60
2023-09-25T17:19:10.253Z,9.40
2023-09-25T17:21:38.848Z,9.70
2023-09-25T17:24:07.506Z,9.40
2023-09-25T17:26:36.333Z,7.30
2023-09-25T17:29:04.585Z,5.30
2023-09-25T17:31:33.195Z,4.70
2023-09-25T17:34:01.555Z,3.90
2023-09-25T17:36:29.951Z,2.60
2023-09-25T17:38:58.258Z,2.40
2023-09-25T17:41:29.133Z,2.30
2023-09-25T17:43:57.601Z,2.20
2023-09-25T17:46:26.078Z,2.30
2023-09-25T17:48:54.785Z,2.10
2023-09-25T17:51:23.177Z,2.50
2023-09-25T17:53:51.934Z,2.30
2023-09-25T17:56:20.863Z,2.20
2023-09-25T17:58:49.565Z,2.00
2023-09-25T18:01:18.126Z,2.40
2023-09-25T18:03:46.493Z,2.10
2023-09-25T18:06:15.102Z,2.00
2023-09-25T18:08:43.419Z,1.70
2023-09-25T18:11:11.747Z,2.40
2023-09-25T18:13:40.093Z,2.00
2023-09-25T18:16:08.430Z,2.20
2023-09-25T18:18:36.812Z,2.20
2023-09-25T18:21:05.185Z,2.10
2023-09-25T18:23:34.958Z,2.00
2023-09-25T18:26:04.052Z,2.10
2023-09-25T18:28:32.909Z,2.00
2023-09-25T18:31:03.257Z,2.40
2023-09-25T18:33:31.993Z,2.10
2023-09-25T18:36:01.220Z,2.30
2023-09-25T18:38:29.590Z,2.40
2023-09-25T18:41:16.725Z,1.90
2023-09-25T18:43:45.154Z,1.70
2023-09-25T18:46:13.653Z,2.30
2023-09-25T18:48:42.158Z,2.00
2023-09-25T18:51:10.510Z,2.40
2023-09-25T18:53:38.817Z,2.10
2023-09-25T18:56:07.103Z,2.70
2023-09-25T18:58:35.483Z,2.00
2023-09-25T19:01:03.954Z,2.00
2023-09-25T19:03:33.943Z,2.40
2023-09-25T19:06:02.897Z,2.40
2023-09-25T19:08:33.240Z,2.40
2023-09-25T19:11:01.600Z,2.40
2023-09-25T19:13:41.963Z,2.60
2023-09-25T19:16:11.735Z,2.90
2023-09-25T19:18:42.122Z,2.40
2023-09-25T19:21:12.105Z,2.70
2023-09-25T19:23:41.193Z,2.40
2023-09-25T19:26:09.774Z,3.30
2023-09-25T19:28:38.233Z,3.40
2023-09-25T19:31:16.135Z,2.30
2023-09-25T19:33:58.313Z,2.80
2023-09-25T19:36:27.538Z,2.70
2023-09-25T19:38:56.133Z,2.40
2023-09-25T19:41:24.780Z,2.10
2023-09-25T19:43:53.583Z,2.80
2023-09-25T19:46:22.397Z,2.40
2023-09-25T19:48:51.184Z,2.50
2023-09-25T19:51:19.534Z,2.10
2023-09-25T19:53:48.034Z,2.20
2023-09-25T19:56:16.654Z,1.80
2023-09-25T19:58:44.970Z,2.00
2023-09-25T20:01:15.226Z,2.30
2023-09-25T20:03:44.067Z,2.20
2023-09-25T20:06:14.017Z,2.10
2023-09-25T20:08:42.442Z,3.10
2023-09-25T20:11:10.709Z,2.80
2023-09-25T20:13:39.012Z,2.20
2023-09-25T20:16:07.687Z,2.20
2023-09-25T20:18:36.278Z,2.70
2023-09-25T20:21:05.004Z,2.20
2023-09-25T20:23:33.339Z,2.50
2023-09-25T20:26:06.655Z,3.20
2023-09-25T20:28:34.961Z,2.60
2023-09-25T20:31:03.322Z,2.60
2023-09-25T20:33:31.746Z,3.00
2023-09-25T20:36:00.023Z,2.20
2023-09-25T20:38:28.498Z,2.40
2023-09-25T20:40:56.961Z,2.70
2023-09-25T20:43:25.359Z,2.30
2023-09-25T20:45:53.695Z,2.70
2023-09-25T20:48:21.944Z,2.50
2023-09-25T20:50:50.350Z,2.50
2023-09-25T20:53:18.579Z,2.80
2023-09-25T20:55:48.831Z,2.50
2023-09-25T20:58:17.182Z,2.60
2023-09-25T21:00:45.494Z,2.70
2023-09-25T21:03:14.005Z,2.60
2023-09-25T21:05:42.472Z,2.90
2023-09-25T21:08:10.850Z,3.00
2023-09-25T21:10:39.201Z,2.90
2023-09-25T21:13:07.512Z,2.70
2023-09-25T21:15:36.985Z,2.70
2023-09-25T21:18:05.973Z,2.70
2023-09-25T21:20:34.316Z,2.80
2023-09-25T21:23:02.741Z,2.40
2023-09-25T21:25:31.129Z,2.80
2023-09-25T21:27:59.477Z,3.00
2023-09-25T21:30:27.820Z,3.20
2023-09-25T21:32:56.140Z,2.50
2023-09-25T21:35:24.592Z,2.80
2023-09-25T21:37:52.816Z,2.40
2023-09-25T21:40:21.274Z,2.50
2023-09-25T21:42:49.680Z,3.00
2023-09-25T21:45:18.281Z,2.80
2023-09-25T21:47:46.534Z,2.80
2023-09-25T21:50:14.832Z,2.50
2023-09-25T21:52:43.176Z,2.50
2023-09-25T21:55:11.506Z,2.50
2023-09-25T21:57:40.164Z,2.50
2023-09-25T22:00:11.264Z,2.80
2023-09-25T22:05:11.118Z,3.30
2023-09-25T22:07:39.447Z,2.90
2023-09-25T22:10:12.373Z,2.30
2023-09-25T22:12:42.530Z,2.80
2023-09-25T22:15:12.536Z,2.60
2023-09-25T22:17:40.868Z,2.90
2023-09-25T22:20:13.111Z,2.80
2023-09-25T22:22:41.600Z,2.70
2023-09-25T22:25:11.894Z,3.10
2023-09-25T22:27:40.268Z,2.90
2023-09-25T22:30:09.411Z,3.10
2023-09-25T22:32:37.781Z,3.30
2023-09-25T22:35:09.035Z,3.10
2023-09-25T22:37:39.725Z,3.80
2023-09-25T22:40:27.359Z,3.00
2023-09-25T22:42:56.726Z,3.30
2023-09-25T22:45:25.058Z,3.50
2023-09-25T22:47:53.308Z,4.30
2023-09-25T22:50:22.085Z,3.00
2023-09-25T22:52:50.510Z,3.90
2023-09-25T22:55:19.601Z,3.60
2023-09-25T22:57:49.201Z,3.80
2023-09-25T23:00:24.069Z,3.60
2023-09-25T23:02:58.081Z,3.70
2023-09-25T23:05:27.280Z,3.50
2023-09-25T23:07:55.758Z,3.20
2023-09-25T23:10:24.377Z,3.60
2023-09-25T23:12:52.983Z,3.90
2023-09-25T23:15:21.517Z,3.40
2023-09-25T23:17:50.000Z,3.00
2023-09-25T23:20:22.345Z,3.10
2023-09-25T23:22:53.521Z,3.70
2023-09-25T23:25:23.365Z,4.10
2023-09-25T23:27:52.540Z,4.30
2023-09-25T23:30:23.652Z,3.00
2023-09-25T23:32:52.914Z,4.20
2023-09-25T23:35:22.092Z,3.20
2023-09-25T23:37:50.565Z,3.70
2023-09-25T23:40:22.520Z,3.60
2023-09-25T23:42:52.160Z,3.80
2023-09-25T23:45:23.706Z,3.70
2023-09-25T23:47:54.059Z,2.70
2023-09-25T23:50:22.771Z,3.30
2023-09-25T23:52:54.875Z,3.10
2023-09-25T23:55:23.707Z,2.90
2023-09-25T23:57:52.529Z,3.30
